sensor_id;sensor_type;location;lat;lon;timestamp;temperature;humidity
19952;DHT22;10137;49.406;19.484;2022-12-18T00:01:46;-6.30;99.90
19952;DHT22;10137;49.406;19.484;2022-12-18T00:04:20;-6.50;99.90
19952;DHT22;10137;49.406;19.484;2022-12-18T00:06:48;-6.80;99.90
19952;DHT22;10137;49.406;19.484;2022-12-18T00:09:15;-6.90;99.90
19952;DHT22;10137;49.406;19.484;2022-12-18T00:11:42;-6.80;99.90
19952;DHT22;10137;49.406;19.484;2022-12-18T00:14:12;-6.60;99.90
19952;DHT22;10137;49.406;19.484;2022-12-18T00:16:39;-6.60;99.90
19952;DHT22;10137;49.406;19.484;2022-12-18T00:19:06;-6.50;99.90
19952;DHT22;10137;49.406;19.484;2022-12-18T00:21:34;-6.40;99.90
19952;DHT22;10137;49.406;19.484;2022-12-18T00:24:01;-6.30;99.90
19952;DHT22;10137;49.406;19.484;2022-12-18T00:26:30;-6.30;99.90
19952;DHT22;10137;49.406;19.484;2022-12-18T00:28:59;-6.30;99.90
19952;DHT22;10137;49.406;19.484;2022-12-18T00:31:28;-6.30;99.90
19952;DHT22;10137;49.406;19.484;2022-12-18T00:33:55;-6.30;99.90
19952;DHT22;10137;49.406;19.484;2022-12-18T00:36:24;-6.30;99.90
19952;DHT22;10137;49.406;19.484;2022-12-18T00:38:53;-6.30;99.90
19952;DHT22;10137;49.406;19.484;2022-12-18T00:41:20;-6.30;99.90
19952;DHT22;10137;49.406;19.484;2022-12-18T00:44:02;-6.40;99.90
19952;DHT22;10137;49.406;19.484;2022-12-18T00:46:31;-6.80;99.90
19952;DHT22;10137;49.406;19.484;2022-12-18T00:48:58;-6.70;99.90
19952;DHT22;10137;49.406;19.484;2022-12-18T00:51:26;-6.50;99.90
19952;DHT22;10137;49.406;19.484;2022-12-18T00:53:53;-6.70;99.90
19952;DHT22;10137;49.406;19.484;2022-12-18T00:56:20;-6.90;99.90
19952;DHT22;10137;49.406;19.484;2022-12-18T00:58:47;-6.80;99.90
19952;DHT22;10137;49.406;19.484;2022-12-18T01:01:14;-6.70;99.90
19952;DHT22;10137;49.406;19.484;2022-12-18T01:03:42;-6.70;99.90
19952;DHT22;10137;49.406;19.484;2022-12-18T01:06:14;-6.60;99.90
19952;DHT22;10137;49.406;19.484;2022-12-18T01:08:42;-6.80;99.90
19952;DHT22;10137;49.406;19.484;2022-12-18T01:11:10;-6.80;99.90
19952;DHT22;10137;49.406;19.484;2022-12-18T01:13:38;-6.90;99.90
19952;DHT22;10137;49.406;19.484;2022-12-18T01:16:05;-6.90;99.90
19952;DHT22;10137;49.406;19.484;2022-12-18T01:18:33;-7.10;99.90
19952;DHT22;10137;49.406;19.484;2022-12-18T01:21:06;-7.40;99.90
19952;DHT22;10137;49.406;19.484;2022-12-18T01:23:33;-7.60;99.90
19952;DHT22;10137;49.406;19.484;2022-12-18T01:26:04;-7.80;99.90
19952;DHT22;10137;49.406;19.484;2022-12-18T01:28:32;-8.00;99.90
19952;DHT22;10137;49.406;19.484;2022-12-18T01:31:12;-8.20;99.90
19952;DHT22;10137;49.406;19.484;2022-12-18T01:33:40;-8.40;99.90
19952;DHT22;10137;49.406;19.484;2022-12-18T01:36:15;-8.60;99.90
19952;DHT22;10137;49.406;19.484;2022-12-18T01:38:42;-8.80;99.90
19952;DHT22;10137;49.406;19.484;2022-12-18T01:41:10;-8.70;99.90
19952;DHT22;10137;49.406;19.484;2022-12-18T01:43:57;-8.50;99.90
19952;DHT22;10137;49.406;19.484;2022-12-18T01:46:26;-8.30;99.90
19952;DHT22;10137;49.406;19.484;2022-12-18T01:48:56;-8.30;99.90
19952;DHT22;10137;49.406;19.484;2022-12-18T01:51:25;-8.30;99.90
19952;DHT22;10137;49.406;19.484;2022-12-18T01:53:53;-8.60;99.90
19952;DHT22;10137;49.406;19.484;2022-12-18T01:56:21;-8.60;99.90
19952;DHT22;10137;49.406;19.484;2022-12-18T01:58:55;-9.00;99.90
19952;DHT22;10137;49.406;19.484;2022-12-18T02:01:24;-9.20;99.90
19952;DHT22;10137;49.406;19.484;2022-12-18T02:03:51;-9.40;99.90
19952;DHT22;10137;49.406;19.484;2022-12-18T02:06:22;-9.50;99.90
19952;DHT22;10137;49.406;19.484;2022-12-18T02:09:01;-9.60;99.90
19952;DHT22;10137;49.406;19.484;2022-12-18T02:11:38;-9.70;99.90
19952;DHT22;10137;49.406;19.484;2022-12-18T02:14:16;-9.90;99.90
19952;DHT22;10137;49.406;19.484;2022-12-18T02:16:47;-9.80;99.90
19952;DHT22;10137;49.406;19.484;2022-12-18T02:19:35;-9.60;99.90
19952;DHT22;10137;49.406;19.484;2022-12-18T02:22:15;-9.40;99.90
19952;DHT22;10137;49.406;19.484;2022-12-18T02:24:54;-9.20;99.90
19952;DHT22;10137;49.406;19.484;2022-12-18T02:27:27;-9.00;99.90
19952;DHT22;10137;49.406;19.484;2022-12-18T02:29:55;-8.90;99.90
19952;DHT22;10137;49.406;19.484;2022-12-18T02:32:27;-8.80;99.90
19952;DHT22;10137;49.406;19.484;2022-12-18T02:34:56;-8.80;99.90
19952;DHT22;10137;49.406;19.484;2022-12-18T02:37:25;-8.80;99.90
19952;DHT22;10137;49.406;19.484;2022-12-18T02:39:55;-8.90;99.90
19952;DHT22;10137;49.406;19.484;2022-12-18T02:42:25;-8.90;99.90
19952;DHT22;10137;49.406;19.484;2022-12-18T02:44:55;-9.00;99.90
19952;DHT22;10137;49.406;19.484;2022-12-18T02:47:24;-9.00;99.90
19952;DHT22;10137;49.406;19.484;2022-12-18T02:49:57;-9.20;99.90
19952;DHT22;10137;49.406;19.484;2022-12-18T02:52:33;-9.20;99.90
19952;DHT22;10137;49.406;19.484;2022-12-18T02:55:13;-9.40;99.90
19952;DHT22;10137;49.406;19.484;2022-12-18T02:57:48;-9.40;99.90
19952;DHT22;10137;49.406;19.484;2022-12-18T03:00:19;-9.30;99.90
19952;DHT22;10137;49.406;19.484;2022-12-18T03:02:50;-9.20;99.90
19952;DHT22;10137;49.406;19.484;2022-12-18T03:05:21;-9.20;99.90
19952;DHT22;10137;49.406;19.484;2022-12-18T03:07:55;-9.10;99.90
19952;DHT22;10137;49.406;19.484;2022-12-18T03:10:27;-9.20;99.90
19952;DHT22;10137;49.406;19.484;2022-12-18T03:13:00;-9.60;99.90
19952;DHT22;10137;49.406;19.484;2022-12-18T03:15:31;-9.90;99.90
19952;DHT22;10137;49.406;19.484;2022-12-18T03:18:04;-10.00;99.90
19952;DHT22;10137;49.406;19.484;2022-12-18T03:20:34;-9.90;99.90
19952;DHT22;10137;49.406;19.484;2022-12-18T03:23:06;-9.80;99.90
19952;DHT22;10137;49.406;19.484;2022-12-18T03:25:38;-9.90;99.90
19952;DHT22;10137;49.406;19.484;2022-12-18T03:28:09;-10.10;99.90
19952;DHT22;10137;49.406;19.484;2022-12-18T03:30:40;-10.10;99.90
19952;DHT22;10137;49.406;19.484;2022-12-18T03:33:10;-10.20;99.90
19952;DHT22;10137;49.406;19.484;2022-12-18T03:35:41;-10.30;99.90
19952;DHT22;10137;49.406;19.484;2022-12-18T03:38:09;-10.40;99.90
19952;DHT22;10137;49.406;19.484;2022-12-18T03:40:43;-10.70;99.90
19952;DHT22;10137;49.406;19.484;2022-12-18T03:43:18;-10.50;99.90
19952;DHT22;10137;49.406;19.484;2022-12-18T03:45:52;-10.40;99.90
19952;DHT22;10137;49.406;19.484;2022-12-18T03:48:26;-10.20;99.90
19952;DHT22;10137;49.406;19.484;2022-12-18T03:50:57;-10.10;99.90
19952;DHT22;10137;49.406;19.484;2022-12-18T03:53:32;-10.00;99.90
19952;DHT22;10137;49.406;19.484;2022-12-18T03:56:02;-10.00;99.90
19952;DHT22;10137;49.406;19.484;2022-12-18T03:58:33;-9.90;99.90
19952;DHT22;10137;49.406;19.484;2022-12-18T04:01:03;-10.50;99.90
19952;DHT22;10137;49.406;19.484;2022-12-18T04:03:34;-10.90;99.90
19952;DHT22;10137;49.406;19.484;2022-12-18T04:06:02;-10.70;99.90
19952;DHT22;10137;49.406;19.484;2022-12-18T04:08:30;-10.60;99.90
19952;DHT22;10137;49.406;19.484;2022-12-18T04:10:57;-10.70;99.90
19952;DHT22;10137;49.406;19.484;2022-12-18T04:13:27;-10.90;99.90
19952;DHT22;10137;49.406;19.484;2022-12-18T04:15:55;-11.20;99.90
19952;DHT22;10137;49.406;19.484;2022-12-18T04:18:22;-11.40;99.90
19952;DHT22;10137;49.406;19.484;2022-12-18T04:20:49;-11.60;99.90
19952;DHT22;10137;49.406;19.484;2022-12-18T04:23:16;-11.60;99.90
19952;DHT22;10137;49.406;19.484;2022-12-18T04:25:43;-11.60;99.90
19952;DHT22;10137;49.406;19.484;2022-12-18T04:28:10;-11.40;99.90
19952;DHT22;10137;49.406;19.484;2022-12-18T04:30:37;-11.30;99.90
19952;DHT22;10137;49.406;19.484;2022-12-18T04:33:08;-11.00;99.90
19952;DHT22;10137;49.406;19.484;2022-12-18T04:35:35;-10.90;99.90
19952;DHT22;10137;49.406;19.484;2022-12-18T04:38:02;-10.80;99.90
19952;DHT22;10137;49.406;19.484;2022-12-18T04:40:29;-10.70;99.90
19952;DHT22;10137;49.406;19.484;2022-12-18T04:42:56;-10.60;99.90
19952;DHT22;10137;49.406;19.484;2022-12-18T04:45:23;-10.60;99.90
19952;DHT22;10137;49.406;19.484;2022-12-18T04:47:50;-10.60;99.90
19952;DHT22;10137;49.406;19.484;2022-12-18T04:50:18;-10.60;99.90
19952;DHT22;10137;49.406;19.484;2022-12-18T04:52:45;-11.00;99.90
19952;DHT22;10137;49.406;19.484;2022-12-18T04:55:12;-10.90;99.90
19952;DHT22;10137;49.406;19.484;2022-12-18T04:57:39;-10.80;99.90
19952;DHT22;10137;49.406;19.484;2022-12-18T05:00:07;-10.70;99.90
19952;DHT22;10137;49.406;19.484;2022-12-18T05:02:34;-10.70;99.90
19952;DHT22;10137;49.406;19.484;2022-12-18T05:05:01;-10.90;99.90
19952;DHT22;10137;49.406;19.484;2022-12-18T05:07:30;-11.20;99.90
19952;DHT22;10137;49.406;19.484;2022-12-18T05:09:57;-11.70;99.90
19952;DHT22;10137;49.406;19.484;2022-12-18T05:12:23;-11.80;99.90
19952;DHT22;10137;49.406;19.484;2022-12-18T05:14:50;-11.80;99.90
19952;DHT22;10137;49.406;19.484;2022-12-18T05:17:18;-11.90;99.90
19952;DHT22;10137;49.406;19.484;2022-12-18T05:19:45;-12.00;99.90
19952;DHT22;10137;49.406;19.484;2022-12-18T05:22:12;-11.90;99.90
19952;DHT22;10137;49.406;19.484;2022-12-18T05:24:40;-12.00;99.90
19952;DHT22;10137;49.406;19.484;2022-12-18T05:27:07;-11.90;99.90
19952;DHT22;10137;49.406;19.484;2022-12-18T05:29:34;-11.90;99.90
19952;DHT22;10137;49.406;19.484;2022-12-18T05:32:01;-11.80;99.90
19952;DHT22;10137;49.406;19.484;2022-12-18T05:34:28;-11.90;99.90
19952;DHT22;10137;49.406;19.484;2022-12-18T05:36:55;-12.00;99.90
19952;DHT22;10137;49.406;19.484;2022-12-18T05:39:22;-12.00;99.90
19952;DHT22;10137;49.406;19.484;2022-12-18T05:41:50;-12.10;99.90
19952;DHT22;10137;49.406;19.484;2022-12-18T05:44:17;-12.20;99.90
19952;DHT22;10137;49.406;19.484;2022-12-18T05:46:44;-12.10;99.90
19952;DHT22;10137;49.406;19.484;2022-12-18T05:49:11;-12.10;99.90
19952;DHT22;10137;49.406;19.484;2022-12-18T05:51:38;-12.20;99.90
19952;DHT22;10137;49.406;19.484;2022-12-18T05:54:06;-12.20;99.90
19952;DHT22;10137;49.406;19.484;2022-12-18T05:56:33;-12.30;99.90
19952;DHT22;10137;49.406;19.484;2022-12-18T05:59:01;-12.20;99.90
19952;DHT22;10137;49.406;19.484;2022-12-18T06:01:28;-12.40;99.90
19952;DHT22;10137;49.406;19.484;2022-12-18T06:03:55;-12.30;99.90
19952;DHT22;10137;49.406;19.484;2022-12-18T06:06:24;-11.90;99.90
19952;DHT22;10137;49.406;19.484;2022-12-18T06:08:51;-11.90;99.90
19952;DHT22;10137;49.406;19.484;2022-12-18T06:11:20;-11.60;99.90
19952;DHT22;10137;49.406;19.484;2022-12-18T06:13:50;-11.50;99.90
19952;DHT22;10137;49.406;19.484;2022-12-18T06:16:18;-11.40;99.90
19952;DHT22;10137;49.406;19.484;2022-12-18T06:18:45;-11.70;99.90
19952;DHT22;10137;49.406;19.484;2022-12-18T06:21:13;-11.70;99.90
19952;DHT22;10137;49.406;19.484;2022-12-18T06:23:39;-11.50;99.90
19952;DHT22;10137;49.406;19.484;2022-12-18T06:26:08;-11.30;99.90
19952;DHT22;10137;49.406;19.484;2022-12-18T06:28:36;-11.20;99.90
19952;DHT22;10137;49.406;19.484;2022-12-18T06:31:03;-11.10;99.90
19952;DHT22;10137;49.406;19.484;2022-12-18T06:33:32;-11.00;99.90
19952;DHT22;10137;49.406;19.484;2022-12-18T06:36:00;-11.00;99.90
19952;DHT22;10137;49.406;19.484;2022-12-18T06:38:28;-10.90;99.90
19952;DHT22;10137;49.406;19.484;2022-12-18T06:40:55;-10.80;99.90
19952;DHT22;10137;49.406;19.484;2022-12-18T06:43:22;-10.70;99.90
19952;DHT22;10137;49.406;19.484;2022-12-18T06:45:48;-10.80;99.90
19952;DHT22;10137;49.406;19.484;2022-12-18T06:48:18;-10.70;99.90
19952;DHT22;10137;49.406;19.484;2022-12-18T06:50:47;-10.70;99.90
19952;DHT22;10137;49.406;19.484;2022-12-18T06:53:14;-10.90;99.90
19952;DHT22;10137;49.406;19.484;2022-12-18T06:55:41;-11.30;99.90
19952;DHT22;10137;49.406;19.484;2022-12-18T06:58:08;-11.30;99.90
19952;DHT22;10137;49.406;19.484;2022-12-18T07:00:35;-11.30;99.90
19952;DHT22;10137;49.406;19.484;2022-12-18T07:03:02;-11.30;99.90
19952;DHT22;10137;49.406;19.484;2022-12-18T07:05:29;-11.50;99.90
19952;DHT22;10137;49.406;19.484;2022-12-18T07:07:57;-11.40;99.90
19952;DHT22;10137;49.406;19.484;2022-12-18T07:10:25;-11.40;99.90
19952;DHT22;10137;49.406;19.484;2022-12-18T07:12:52;-11.40;99.90
19952;DHT22;10137;49.406;19.484;2022-12-18T07:15:19;-11.10;99.90
19952;DHT22;10137;49.406;19.484;2022-12-18T07:17:45;-11.10;99.90
19952;DHT22;10137;49.406;19.484;2022-12-18T07:20:12;-11.20;99.90
19952;DHT22;10137;49.406;19.484;2022-12-18T07:22:39;-11.30;99.90
19952;DHT22;10137;49.406;19.484;2022-12-18T07:25:08;-11.40;99.90
19952;DHT22;10137;49.406;19.484;2022-12-18T07:27:35;-11.20;99.90
19952;DHT22;10137;49.406;19.484;2022-12-18T07:30:03;-11.00;99.90
19952;DHT22;10137;49.406;19.484;2022-12-18T07:32:30;-11.20;99.90
19952;DHT22;10137;49.406;19.484;2022-12-18T07:34:57;-11.10;99.90
19952;DHT22;10137;49.406;19.484;2022-12-18T07:37:24;-11.30;99.90
19952;DHT22;10137;49.406;19.484;2022-12-18T07:39:51;-11.10;99.90
19952;DHT22;10137;49.406;19.484;2022-12-18T07:42:19;-11.00;99.90
19952;DHT22;10137;49.406;19.484;2022-12-18T07:44:59;-11.00;99.90
19952;DHT22;10137;49.406;19.484;2022-12-18T07:47:26;-11.10;99.90
19952;DHT22;10137;49.406;19.484;2022-12-18T07:49:55;-11.10;99.90
19952;DHT22;10137;49.406;19.484;2022-12-18T07:52:22;-11.10;99.90
19952;DHT22;10137;49.406;19.484;2022-12-18T07:54:49;-11.10;99.90
19952;DHT22;10137;49.406;19.484;2022-12-18T07:57:16;-11.20;99.90
19952;DHT22;10137;49.406;19.484;2022-12-18T07:59:44;-11.20;99.90
19952;DHT22;10137;49.406;19.484;2022-12-18T08:02:11;-10.90;99.90
19952;DHT22;10137;49.406;19.484;2022-12-18T08:04:38;-10.80;99.90
19952;DHT22;10137;49.406;19.484;2022-12-18T08:07:05;-10.60;99.90
19952;DHT22;10137;49.406;19.484;2022-12-18T08:09:32;-10.40;99.90
19952;DHT22;10137;49.406;19.484;2022-12-18T08:11:59;-10.20;99.90
19952;DHT22;10137;49.406;19.484;2022-12-18T08:14:26;-10.10;99.90
19952;DHT22;10137;49.406;19.484;2022-12-18T08:16:55;-9.90;99.90
19952;DHT22;10137;49.406;19.484;2022-12-18T08:19:22;-9.90;99.90
19952;DHT22;10137;49.406;19.484;2022-12-18T08:21:49;-9.90;99.90
19952;DHT22;10137;49.406;19.484;2022-12-18T08:24:16;-9.90;99.90
19952;DHT22;10137;49.406;19.484;2022-12-18T08:26:43;-9.90;99.90
19952;DHT22;10137;49.406;19.484;2022-12-18T08:29:10;-10.20;99.90
19952;DHT22;10137;49.406;19.484;2022-12-18T08:31:37;-10.20;99.90
19952;DHT22;10137;49.406;19.484;2022-12-18T08:34:07;-10.30;99.90
19952;DHT22;10137;49.406;19.484;2022-12-18T08:36:34;-10.30;99.90
19952;DHT22;10137;49.406;19.484;2022-12-18T08:39:01;-10.10;99.90
19952;DHT22;10137;49.406;19.484;2022-12-18T08:41:28;-9.90;99.90
19952;DHT22;10137;49.406;19.484;2022-12-18T08:43:55;-9.80;99.90
19952;DHT22;10137;49.406;19.484;2022-12-18T08:46:41;-10.00;99.90
19952;DHT22;10137;49.406;19.484;2022-12-18T08:49:10;-10.00;99.90
19952;DHT22;10137;49.406;19.484;2022-12-18T08:51:38;-10.00;99.90
19952;DHT22;10137;49.406;19.484;2022-12-18T08:54:06;-10.00;99.90
19952;DHT22;10137;49.406;19.484;2022-12-18T08:56:33;-10.10;99.90
19952;DHT22;10137;49.406;19.484;2022-12-18T08:59:00;-10.10;99.90
19952;DHT22;10137;49.406;19.484;2022-12-18T09:01:27;-10.10;99.90
19952;DHT22;10137;49.406;19.484;2022-12-18T09:03:54;-10.00;99.90
19952;DHT22;10137;49.406;19.484;2022-12-18T09:06:23;-9.90;99.90
19952;DHT22;10137;49.406;19.484;2022-12-18T09:08:52;-9.80;99.90
19952;DHT22;10137;49.406;19.484;2022-12-18T09:11:22;-9.80;99.90
19952;DHT22;10137;49.406;19.484;2022-12-18T09:13:50;-9.70;99.90
19952;DHT22;10137;49.406;19.484;2022-12-18T09:16:17;-9.70;99.90
19952;DHT22;10137;49.406;19.484;2022-12-18T09:18:45;-9.70;99.90
19952;DHT22;10137;49.406;19.484;2022-12-18T09:21:13;-9.70;99.90
19952;DHT22;10137;49.406;19.484;2022-12-18T09:23:42;-9.60;99.90
19952;DHT22;10137;49.406;19.484;2022-12-18T09:26:09;-9.60;99.90
19952;DHT22;10137;49.406;19.484;2022-12-18T09:28:36;-9.50;99.90
19952;DHT22;10137;49.406;19.484;2022-12-18T09:31:05;-9.50;99.90
19952;DHT22;10137;49.406;19.484;2022-12-18T09:33:33;-9.40;99.90
19952;DHT22;10137;49.406;19.484;2022-12-18T09:36:02;-9.30;99.90
19952;DHT22;10137;49.406;19.484;2022-12-18T09:38:30;-9.30;99.90
19952;DHT22;10137;49.406;19.484;2022-12-18T09:41:00;-9.30;99.90
19952;DHT22;10137;49.406;19.484;2022-12-18T09:43:35;-9.20;99.90
19952;DHT22;10137;49.406;19.484;2022-12-18T09:46:06;-9.00;99.90
19952;DHT22;10137;49.406;19.484;2022-12-18T09:48:36;-8.90;99.90
19952;DHT22;10137;49.406;19.484;2022-12-18T09:51:15;-8.90;99.90
19952;DHT22;10137;49.406;19.484;2022-12-18T09:53:46;-8.70;99.90
19952;DHT22;10137;49.406;19.484;2022-12-18T09:56:17;-8.50;99.90
19952;DHT22;10137;49.406;19.484;2022-12-18T09:58:47;-8.40;99.90
19952;DHT22;10137;49.406;19.484;2022-12-18T10:01:20;-8.40;99.90
19952;DHT22;10137;49.406;19.484;2022-12-18T10:03:48;-8.40;99.90
19952;DHT22;10137;49.406;19.484;2022-12-18T10:06:18;-8.40;99.90
19952;DHT22;10137;49.406;19.484;2022-12-18T10:08:51;-8.40;99.90
19952;DHT22;10137;49.406;19.484;2022-12-18T10:11:30;-8.30;99.90
19952;DHT22;10137;49.406;19.484;2022-12-18T10:14:05;-8.20;99.90
19952;DHT22;10137;49.406;19.484;2022-12-18T10:16:43;-8.20;99.90
19952;DHT22;10137;49.406;19.484;2022-12-18T10:19:23;-8.10;99.90
19952;DHT22;10137;49.406;19.484;2022-12-18T10:21:58;-8.10;99.90
19952;DHT22;10137;49.406;19.484;2022-12-18T10:24:33;-8.10;99.90
19952;DHT22;10137;49.406;19.484;2022-12-18T10:27:12;-8.10;99.90
19952;DHT22;10137;49.406;19.484;2022-12-18T10:29:42;-8.10;99.90
19952;DHT22;10137;49.406;19.484;2022-12-18T10:32:14;-8.10;99.90
19952;DHT22;10137;49.406;19.484;2022-12-18T10:34:45;-8.00;99.90
19952;DHT22;10137;49.406;19.484;2022-12-18T10:37:16;-7.90;99.90
19952;DHT22;10137;49.406;19.484;2022-12-18T10:39:44;-7.90;99.90
19952;DHT22;10137;49.406;19.484;2022-12-18T10:42:17;-8.00;99.90
19952;DHT22;10137;49.406;19.484;2022-12-18T10:44:45;-7.90;99.90
19952;DHT22;10137;49.406;19.484;2022-12-18T10:47:14;-7.80;99.90
19952;DHT22;10137;49.406;19.484;2022-12-18T10:49:52;-7.90;99.90
19952;DHT22;10137;49.406;19.484;2022-12-18T10:52:22;-7.90;99.90
19952;DHT22;10137;49.406;19.484;2022-12-18T10:54:51;-7.90;99.90
19952;DHT22;10137;49.406;19.484;2022-12-18T10:57:33;-7.90;99.90
19952;DHT22;10137;49.406;19.484;2022-12-18T11:00:23;-7.80;99.90
19952;DHT22;10137;49.406;19.484;2022-12-18T11:02:51;-7.90;99.90
19952;DHT22;10137;49.406;19.484;2022-12-18T11:05:28;-7.90;99.90
19952;DHT22;10137;49.406;19.484;2022-12-18T11:07:56;-7.80;99.90
19952;DHT22;10137;49.406;19.484;2022-12-18T11:10:26;-7.70;99.90
19952;DHT22;10137;49.406;19.484;2022-12-18T11:12:57;-7.80;99.90
19952;DHT22;10137;49.406;19.484;2022-12-18T11:15:35;-7.80;99.90
19952;DHT22;10137;49.406;19.484;2022-12-18T11:18:02;-7.80;99.90
19952;DHT22;10137;49.406;19.484;2022-12-18T11:20:32;-7.70;99.90
19952;DHT22;10137;49.406;19.484;2022-12-18T11:23:02;-7.60;99.90
19952;DHT22;10137;49.406;19.484;2022-12-18T11:25:31;-7.70;99.90
19952;DHT22;10137;49.406;19.484;2022-12-18T11:28:01;-7.80;99.90
19952;DHT22;10137;49.406;19.484;2022-12-18T11:30:30;-7.70;99.90
19952;DHT22;10137;49.406;19.484;2022-12-18T11:33:04;-7.80;99.90
19952;DHT22;10137;49.406;19.484;2022-12-18T11:35:39;-7.70;99.90
19952;DHT22;10137;49.406;19.484;2022-12-18T11:38:12;-7.70;99.90
19952;DHT22;10137;49.406;19.484;2022-12-18T11:40:44;-7.70;99.90
19952;DHT22;10137;49.406;19.484;2022-12-18T11:43:17;-7.70;99.90
19952;DHT22;10137;49.406;19.484;2022-12-18T11:45:49;-7.70;99.90
19952;DHT22;10137;49.406;19.484;2022-12-18T11:48:22;-7.80;99.90
19952;DHT22;10137;49.406;19.484;2022-12-18T11:50:52;-7.80;99.90
19952;DHT22;10137;49.406;19.484;2022-12-18T11:53:20;-7.70;99.90
19952;DHT22;10137;49.406;19.484;2022-12-18T11:55:56;-7.60;99.90
19952;DHT22;10137;49.406;19.484;2022-12-18T11:58:36;-7.50;99.90
19952;DHT22;10137;49.406;19.484;2022-12-18T12:01:13;-7.70;99.90
19952;DHT22;10137;49.406;19.484;2022-12-18T12:03:59;-7.70;99.90
19952;DHT22;10137;49.406;19.484;2022-12-18T12:06:32;-7.80;99.90
19952;DHT22;10137;49.406;19.484;2022-12-18T12:09:08;-7.80;99.90
19952;DHT22;10137;49.406;19.484;2022-12-18T12:11:49;-7.90;99.90
19952;DHT22;10137;49.406;19.484;2022-12-18T12:14:36;-7.90;99.90
19952;DHT22;10137;49.406;19.484;2022-12-18T12:17:11;-7.80;99.90
19952;DHT22;10137;49.406;19.484;2022-12-18T12:19:47;-7.80;99.90
19952;DHT22;10137;49.406;19.484;2022-12-18T12:22:24;-7.80;99.90
19952;DHT22;10137;49.406;19.484;2022-12-18T12:25:04;-7.80;99.90
19952;DHT22;10137;49.406;19.484;2022-12-18T12:27:42;-7.80;99.90
19952;DHT22;10137;49.406;19.484;2022-12-18T12:30:18;-7.80;99.90
19952;DHT22;10137;49.406;19.484;2022-12-18T12:33:00;-7.80;99.90
19952;DHT22;10137;49.406;19.484;2022-12-18T12:35:43;-7.70;99.90
19952;DHT22;10137;49.406;19.484;2022-12-18T12:38:13;-7.50;99.90
19952;DHT22;10137;49.406;19.484;2022-12-18T12:40:45;-7.40;99.90
19952;DHT22;10137;49.406;19.484;2022-12-18T12:43:24;-7.30;99.90
19952;DHT22;10137;49.406;19.484;2022-12-18T12:45:56;-7.20;99.90
19952;DHT22;10137;49.406;19.484;2022-12-18T12:48:33;-7.10;99.90
19952;DHT22;10137;49.406;19.484;2022-12-18T12:51:06;-7.20;99.90
19952;DHT22;10137;49.406;19.484;2022-12-18T12:53:36;-7.10;99.90
19952;DHT22;10137;49.406;19.484;2022-12-18T12:56:04;-7.40;99.90
19952;DHT22;10137;49.406;19.484;2022-12-18T12:58:39;-7.50;99.90
19952;DHT22;10137;49.406;19.484;2022-12-18T13:01:17;-7.60;99.90
19952;DHT22;10137;49.406;19.484;2022-12-18T13:03:54;-7.70;99.90
19952;DHT22;10137;49.406;19.484;2022-12-18T13:06:30;-7.80;99.90
19952;DHT22;10137;49.406;19.484;2022-12-18T13:09:00;-7.70;99.90
19952;DHT22;10137;49.406;19.484;2022-12-18T13:11:32;-7.70;99.90
19952;DHT22;10137;49.406;19.484;2022-12-18T13:14:23;-7.80;99.90
19952;DHT22;10137;49.406;19.484;2022-12-18T13:17:22;-7.90;99.90
19952;DHT22;10137;49.406;19.484;2022-12-18T13:20:05;-7.90;99.90
19952;DHT22;10137;49.406;19.484;2022-12-18T13:22:35;-7.90;99.90
19952;DHT22;10137;49.406;19.484;2022-12-18T13:25:04;-8.00;99.90
19952;DHT22;10137;49.406;19.484;2022-12-18T13:28:05;-8.10;99.90
19952;DHT22;10137;49.406;19.484;2022-12-18T13:30:51;-8.00;99.90
19952;DHT22;10137;49.406;19.484;2022-12-18T13:33:49;-8.00;99.90
19952;DHT22;10137;49.406;19.484;2022-12-18T13:36:31;-7.90;99.90
19952;DHT22;10137;49.406;19.484;2022-12-18T13:39:23;-7.80;99.90
19952;DHT22;10137;49.406;19.484;2022-12-18T13:41:52;-7.90;99.90
19952;DHT22;10137;49.406;19.484;2022-12-18T13:44:28;-7.70;99.90
19952;DHT22;10137;49.406;19.484;2022-12-18T13:46:57;-7.70;99.90
19952;DHT22;10137;49.406;19.484;2022-12-18T13:49:29;-7.80;99.90
19952;DHT22;10137;49.406;19.484;2022-12-18T13:51:59;-7.90;99.90
19952;DHT22;10137;49.406;19.484;2022-12-18T13:54:32;-8.00;99.90
19952;DHT22;10137;49.406;19.484;2022-12-18T13:57:01;-8.20;99.90
19952;DHT22;10137;49.406;19.484;2022-12-18T13:59:34;-8.20;99.90
19952;DHT22;10137;49.406;19.484;2022-12-18T14:02:12;-8.30;99.90
19952;DHT22;10137;49.406;19.484;2022-12-18T14:04:41;-8.40;99.90
19952;DHT22;10137;49.406;19.484;2022-12-18T14:07:12;-8.40;99.90
19952;DHT22;10137;49.406;19.484;2022-12-18T14:09:42;-8.40;99.90
19952;DHT22;10137;49.406;19.484;2022-12-18T14:12:17;-8.50;99.90
19952;DHT22;10137;49.406;19.484;2022-12-18T14:15:03;-8.50;99.90
19952;DHT22;10137;49.406;19.484;2022-12-18T14:17:31;-8.50;99.90
19952;DHT22;10137;49.406;19.484;2022-12-18T14:20:00;-8.50;99.90
19952;DHT22;10137;49.406;19.484;2022-12-18T14:22:27;-8.50;99.90
19952;DHT22;10137;49.406;19.484;2022-12-18T14:25:22;-8.60;99.90
19952;DHT22;10137;49.406;19.484;2022-12-18T14:27:51;-8.60;99.90
19952;DHT22;10137;49.406;19.484;2022-12-18T14:30:30;-8.70;99.90
19952;DHT22;10137;49.406;19.484;2022-12-18T14:33:02;-8.70;99.90
19952;DHT22;10137;49.406;19.484;2022-12-18T14:35:30;-8.60;99.90
19952;DHT22;10137;49.406;19.484;2022-12-18T14:38:20;-8.60;99.90
19952;DHT22;10137;49.406;19.484;2022-12-18T14:40:51;-8.40;99.90
19952;DHT22;10137;49.406;19.484;2022-12-18T14:43:18;-8.30;99.90
19952;DHT22;10137;49.406;19.484;2022-12-18T14:45:46;-8.30;99.90
19952;DHT22;10137;49.406;19.484;2022-12-18T14:48:17;-8.20;99.90
19952;DHT22;10137;49.406;19.484;2022-12-18T14:50:55;-8.20;99.90
19952;DHT22;10137;49.406;19.484;2022-12-18T14:53:32;-8.20;99.90
19952;DHT22;10137;49.406;19.484;2022-12-18T14:56:00;-8.20;99.90
19952;DHT22;10137;49.406;19.484;2022-12-18T14:58:27;-8.10;99.90
19952;DHT22;10137;49.406;19.484;2022-12-18T15:00:54;-8.10;99.90
19952;DHT22;10137;49.406;19.484;2022-12-18T15:03:21;-8.10;99.90
19952;DHT22;10137;49.406;19.484;2022-12-18T15:05:50;-8.00;99.90
19952;DHT22;10137;49.406;19.484;2022-12-18T15:08:32;-8.10;99.90
19952;DHT22;10137;49.406;19.484;2022-12-18T15:11:02;-8.40;99.90
19952;DHT22;10137;49.406;19.484;2022-12-18T15:13:29;-8.50;99.90
19952;DHT22;10137;49.406;19.484;2022-12-18T15:15:56;-8.60;99.90
19952;DHT22;10137;49.406;19.484;2022-12-18T15:18:30;-8.70;99.90
19952;DHT22;10137;49.406;19.484;2022-12-18T15:21:08;-8.80;99.90
19952;DHT22;10137;49.406;19.484;2022-12-18T15:23:37;-8.80;99.90
19952;DHT22;10137;49.406;19.484;2022-12-18T15:26:12;-8.70;99.90
19952;DHT22;10137;49.406;19.484;2022-12-18T15:28:45;-8.80;99.90
19952;DHT22;10137;49.406;19.484;2022-12-18T15:31:24;-8.80;99.90
19952;DHT22;10137;49.406;19.484;2022-12-18T15:34:09;-8.90;99.90